sensor_id;sensor_type;location;lat;lon;timestamp;pressure;altitude;pressure_sealevel;temperature;humidity
40838;BME280;29632;49.168;9.848;2023-03-21T00:01:04;97020.75;;;15.44;41.97
40838;BME280;29632;49.168;9.848;2023-03-21T00:03:33;97014.34;;;15.46;41.98
40838;BME280;29632;49.168;9.848;2023-03-21T00:06:04;97020.09;;;15.50;41.68
40838;BME280;29632;49.168;9.848;2023-03-21T00:08:30;97015.63;;;15.51;41.96
40838;BME280;29632;49.168;9.848;2023-03-21T00:10:57;97013.19;;;15.49;41.61
40838;BME280;29632;49.168;9.848;2023-03-21T00:13:24;97010.72;;;15.47;41.86
40838;BME280;29632;49.168;9.848;2023-03-21T00:15:51;97006.28;;;15.48;41.91
40838;BME280;29632;49.168;9.848;2023-03-21T00:18:22;97009.56;;;15.50;41.71
40838;BME280;29632;49.168;9.848;2023-03-21T00:21:19;97003.31;;;15.51;41.62
40838;BME280;29632;49.168;9.848;2023-03-21T00:23:46;97006.59;;;15.53;41.59
40838;BME280;29632;49.168;9.848;2023-03-21T00:26:13;96998.72;;;15.53;41.59
40838;BME280;29632;49.168;9.848;2023-03-21T00:28:40;96997.91;;;15.53;41.66
40838;BME280;29632;49.168;9.848;2023-03-21T00:31:06;97001.34;;;15.53;41.77
40838;BME280;29632;49.168;9.848;2023-03-21T00:33:33;96988.22;;;15.53;41.60
40838;BME280;29632;49.168;9.848;2023-03-21T00:35:59;96993.47;;;15.53;41.63
40838;BME280;29632;49.168;9.848;2023-03-21T00:38:25;96990.69;;;15.55;41.64
40838;BME280;29632;49.168;9.848;2023-03-21T00:40:51;96990.84;;;15.53;41.56
40838;BME280;29632;49.168;9.848;2023-03-21T00:43:17;96983.97;;;15.52;41.67
40838;BME280;29632;49.168;9.848;2023-03-21T00:45:48;96978.72;;;15.52;41.55
40838;BME280;29632;49.168;9.848;2023-03-21T00:48:14;96981.19;;;15.54;41.78
40838;BME280;29632;49.168;9.848;2023-03-21T00:50:40;96971.81;;;15.51;41.66
40838;BME280;29632;49.168;9.848;2023-03-21T00:53:06;96971.19;;;15.49;41.62
40838;BME280;29632;49.168;9.848;2023-03-21T00:55:32;96965.94;;;15.49;41.74
40838;BME280;29632;49.168;9.848;2023-03-21T00:57:58;96961.66;;;15.48;41.75
40838;BME280;29632;49.168;9.848;2023-03-21T01:00:24;96961.03;;;15.46;41.83
40838;BME280;29632;49.168;9.848;2023-03-21T01:02:49;96956.31;;;15.41;41.42
40838;BME280;29632;49.168;9.848;2023-03-21T01:05:26;96957.28;;;15.40;41.34
40838;BME280;29632;49.168;9.848;2023-03-21T01:08:12;96952.34;;;15.37;41.69
40838;BME280;29632;49.168;9.848;2023-03-21T01:10:42;96954.81;;;15.39;41.66
40838;BME280;29632;49.168;9.848;2023-03-21T01:13:09;96953.53;;;15.35;41.48
40838;BME280;29632;49.168;9.848;2023-03-21T01:15:35;96961.91;;;15.30;41.93
40838;BME280;29632;49.168;9.848;2023-03-21T01:18:01;96947.97;;;15.29;41.64
40838;BME280;29632;49.168;9.848;2023-03-21T01:20:28;96945.69;;;15.26;41.88
40838;BME280;29632;49.168;9.848;2023-03-21T01:22:53;96950.94;;;15.26;41.90
40838;BME280;29632;49.168;9.848;2023-03-21T01:25:19;96947.50;;;15.26;41.68
40838;BME280;29632;49.168;9.848;2023-03-21T01:27:45;96949.47;;;15.24;41.74
40838;BME280;29632;49.168;9.848;2023-03-21T01:30:11;96941.13;;;15.20;41.74
40838;BME280;29632;49.168;9.848;2023-03-21T01:32:36;96943.91;;;15.19;41.88
40838;BME280;29632;49.168;9.848;2023-03-21T01:35:02;96943.28;;;15.17;41.96
40838;BME280;29632;49.168;9.848;2023-03-21T01:37:28;96939.81;;;15.16;41.78
40838;BME280;29632;49.168;9.848;2023-03-21T01:39:54;96938.84;;;15.17;41.51
40838;BME280;29632;49.168;9.848;2023-03-21T01:42:20;96937.50;;;15.13;42.02
40838;BME280;29632;49.168;9.848;2023-03-21T01:47:56;96935.41;;;15.08;41.75
40838;BME280;29632;49.168;9.848;2023-03-21T01:50:22;96930.16;;;15.08;41.97
40838;BME280;29632;49.168;9.848;2023-03-21T01:52:48;96931.78;;;15.09;41.95
40838;BME280;29632;49.168;9.848;2023-03-21T01:55:14;96933.44;;;15.10;41.85
40838;BME280;29632;49.168;9.848;2023-03-21T01:57:46;96934.25;;;15.11;41.81
40838;BME280;29632;49.168;9.848;2023-03-21T02:00:14;96925.72;;;15.09;41.87
40838;BME280;29632;49.168;9.848;2023-03-21T02:02:42;96928.53;;;15.07;41.84
40838;BME280;29632;49.168;9.848;2023-03-21T02:05:17;96927.06;;;15.05;41.59
40838;BME280;29632;49.168;9.848;2023-03-21T02:07:45;96928.03;;;15.04;41.93
40838;BME280;29632;49.168;9.848;2023-03-21T02:10:12;96919.53;;;15.02;41.72
40838;BME280;29632;49.168;9.848;2023-03-21T02:12:38;96917.06;;;15.00;41.88
40838;BME280;29632;49.168;9.848;2023-03-21T02:15:05;96919.69;;;15.00;42.07
40838;BME280;29632;49.168;9.848;2023-03-21T02:17:33;96922.16;;;15.02;41.70
40838;BME280;29632;49.168;9.848;2023-03-21T02:23:31;96924.44;;;15.05;41.82
40838;BME280;29632;49.168;9.848;2023-03-21T02:28:39;96909.50;;;15.05;41.86
40838;BME280;29632;49.168;9.848;2023-03-21T02:31:47;96908.19;;;15.09;41.73
40838;BME280;29632;49.168;9.848;2023-03-21T02:36:56;96901.78;;;15.12;41.68
40838;BME280;29632;49.168;9.848;2023-03-21T02:39:40;96891.31;;;15.12;41.72
40838;BME280;29632;49.168;9.848;2023-03-21T02:42:20;96900.78;;;15.13;41.61
40838;BME280;29632;49.168;9.848;2023-03-21T02:45:02;96889.50;;;15.13;41.53
40838;BME280;29632;49.168;9.848;2023-03-21T02:47:40;96899.34;;;15.10;41.74
40838;BME280;29632;49.168;9.848;2023-03-21T02:50:15;96898.06;;;15.06;41.86
40838;BME280;29632;49.168;9.848;2023-03-21T02:52:43;96901.50;;;14.99;41.89
40838;BME280;29632;49.168;9.848;2023-03-21T02:55:13;96905.63;;;14.93;41.87
40838;BME280;29632;49.168;9.848;2023-03-21T02:57:41;96907.28;;;14.86;42.24
40838;BME280;29632;49.168;9.848;2023-03-21T03:00:09;96907.78;;;14.81;42.03
40838;BME280;29632;49.168;9.848;2023-03-21T03:02:37;96902.03;;;14.78;42.36
40838;BME280;29632;49.168;9.848;2023-03-21T03:05:18;96906.81;;;14.74;41.98
40838;BME280;29632;49.168;9.848;2023-03-21T03:07:55;96898.94;;;14.74;42.00
40838;BME280;29632;49.168;9.848;2023-03-21T03:10:38;96903.38;;;14.73;42.54
40838;BME280;29632;49.168;9.848;2023-03-21T03:13:12;96897.97;;;14.75;42.07
40838;BME280;29632;49.168;9.848;2023-03-21T03:18:46;96895.34;;;14.75;42.13
40838;BME280;29632;49.168;9.848;2023-03-21T03:23:56;96892.09;;;14.73;42.40
40838;BME280;29632;49.168;9.848;2023-03-21T03:26:33;96890.09;;;14.75;42.38
40838;BME280;29632;49.168;9.848;2023-03-21T03:29:05;96882.25;;;14.75;42.46
40838;BME280;29632;49.168;9.848;2023-03-21T03:31:34;96886.47;;;14.76;42.33
40838;BME280;29632;49.168;9.848;2023-03-21T03:34:06;96884.69;;;14.77;42.15
40838;BME280;29632;49.168;9.848;2023-03-21T03:36:37;96891.72;;;14.76;42.29
40838;BME280;29632;49.168;9.848;2023-03-21T03:39:09;96890.75;;;14.77;42.07
40838;BME280;29632;49.168;9.848;2023-03-21T03:41:50;96893.22;;;14.79;42.05
40838;BME280;29632;49.168;9.848;2023-03-21T03:44:18;96886.97;;;14.80;42.14
40838;BME280;29632;49.168;9.848;2023-03-21T03:46:49;96891.06;;;14.82;42.11
40838;BME280;29632;49.168;9.848;2023-03-21T03:49:20;96892.53;;;14.85;42.30
40838;BME280;29632;49.168;9.848;2023-03-21T03:52:03;96888.94;;;14.86;41.80
40838;BME280;29632;49.168;9.848;2023-03-21T03:54:38;96888.75;;;14.87;41.92
40838;BME280;29632;49.168;9.848;2023-03-21T03:57:05;96878.28;;;14.87;42.48
40838;BME280;29632;49.168;9.848;2023-03-21T03:59:35;96881.69;;;14.88;41.93
40838;BME280;29632;49.168;9.848;2023-03-21T04:02:01;96882.69;;;14.87;41.92
40838;BME280;29632;49.168;9.848;2023-03-21T04:04:27;96882.50;;;14.88;42.31
40838;BME280;29632;49.168;9.848;2023-03-21T04:06:54;96884.50;;;14.86;42.01
40838;BME280;29632;49.168;9.848;2023-03-21T04:09:20;96871.38;;;14.86;42.08
40838;BME280;29632;49.168;9.848;2023-03-21T04:11:46;96874.00;;;14.86;41.90
40838;BME280;29632;49.168;9.848;2023-03-21T04:14:11;96871.38;;;14.86;41.99
40838;BME280;29632;49.168;9.848;2023-03-21T04:16:37;96866.94;;;14.87;42.00
40838;BME280;29632;49.168;9.848;2023-03-21T04:19:03;96872.19;;;14.87;42.11
40838;BME280;29632;49.168;9.848;2023-03-21T04:21:29;96870.56;;;14.86;42.28
40838;BME280;29632;49.168;9.848;2023-03-21T04:23:55;96877.63;;;14.85;42.47
40838;BME280;29632;49.168;9.848;2023-03-21T04:26:21;96873.34;;;14.84;42.09
40838;BME280;29632;49.168;9.848;2023-03-21T04:28:48;96876.94;;;14.83;42.00
40838;BME280;29632;49.168;9.848;2023-03-21T04:31:14;96873.53;;;14.83;42.21
40838;BME280;29632;49.168;9.848;2023-03-21T04:33:42;96882.41;;;14.82;41.99
40838;BME280;29632;49.168;9.848;2023-03-21T04:36:09;96880.75;;;14.81;42.11
40838;BME280;29632;49.168;9.848;2023-03-21T04:38:50;96883.53;;;14.79;41.92
40838;BME280;29632;49.168;9.848;2023-03-21T04:41:17;96885.50;;;14.77;42.37
40838;BME280;29632;49.168;9.848;2023-03-21T04:43:42;96881.59;;;14.73;42.40
40838;BME280;29632;49.168;9.848;2023-03-21T04:46:09;96883.38;;;14.72;42.30
40838;BME280;29632;49.168;9.848;2023-03-21T04:48:35;96878.28;;;14.71;42.20
40838;BME280;29632;49.168;9.848;2023-03-21T04:51:00;96876.69;;;14.70;42.40
40838;BME280;29632;49.168;9.848;2023-03-21T04:53:26;96875.03;;;14.69;42.37
40838;BME280;29632;49.168;9.848;2023-03-21T04:55:52;96877.66;;;14.69;42.43
40838;BME280;29632;49.168;9.848;2023-03-21T04:58:17;96884.72;;;14.68;42.43
40838;BME280;29632;49.168;9.848;2023-03-21T05:00:45;96880.44;;;14.67;42.52
40838;BME280;29632;49.168;9.848;2023-03-21T05:03:11;96881.44;;;14.66;42.35
40838;BME280;29632;49.168;9.848;2023-03-21T05:05:44;96875.56;;;14.64;42.41
40838;BME280;29632;49.168;9.848;2023-03-21T05:08:10;96879.78;;;14.65;42.47
40838;BME280;29632;49.168;9.848;2023-03-21T05:10:35;96877.34;;;14.64;42.58
40838;BME280;29632;49.168;9.848;2023-03-21T05:13:01;96874.06;;;14.62;42.20
40838;BME280;29632;49.168;9.848;2023-03-21T05:15:27;96868.81;;;14.62;42.55
40838;BME280;29632;49.168;9.848;2023-03-21T05:17:52;96873.25;;;14.61;42.62
40838;BME280;29632;49.168;9.848;2023-03-21T05:20:18;96870.47;;;14.63;42.58
40838;BME280;29632;49.168;9.848;2023-03-21T05:22:44;96870.47;;;14.63;42.55
40838;BME280;29632;49.168;9.848;2023-03-21T05:25:11;96867.00;;;14.62;42.27
40838;BME280;29632;49.168;9.848;2023-03-21T05:27:37;96866.84;;;14.64;42.01
40838;BME280;29632;49.168;9.848;2023-03-21T05:30:15;96864.22;;;14.64;42.20
40838;BME280;29632;49.168;9.848;2023-03-21T05:32:41;96859.16;;;14.62;42.24
40838;BME280;29632;49.168;9.848;2023-03-21T05:35:07;96860.78;;;14.63;42.39
40838;BME280;29632;49.168;9.848;2023-03-21T05:37:32;96871.28;;;14.63;42.21
40838;BME280;29632;49.168;9.848;2023-03-21T05:39:58;96869.63;;;14.62;42.49
40838;BME280;29632;49.168;9.848;2023-03-21T05:42:24;96867.00;;;14.62;42.38
40838;BME280;29632;49.168;9.848;2023-03-21T05:44:50;96868.00;;;14.61;42.47
40838;BME280;29632;49.168;9.848;2023-03-21T05:47:16;96870.63;;;14.61;42.56
40838;BME280;29632;49.168;9.848;2023-03-21T05:49:42;96869.63;;;14.62;42.24
40838;BME280;29632;49.168;9.848;2023-03-21T05:52:08;96877.50;;;14.62;42.44
40838;BME280;29632;49.168;9.848;2023-03-21T05:54:34;96873.25;;;14.61;42.44
40838;BME280;29632;49.168;9.848;2023-03-21T05:57:00;96874.06;;;14.62;42.42
40838;BME280;29632;49.168;9.848;2023-03-21T05:59:26;96880.13;;;14.62;42.22
40838;BME280;29632;49.168;9.848;2023-03-21T06:01:52;96882.75;;;14.62;42.46
40838;BME280;29632;49.168;9.848;2023-03-21T06:04:17;96885.34;;;14.62;42.36
40838;BME280;29632;49.168;9.848;2023-03-21T06:06:43;96884.38;;;14.63;42.52
40838;BME280;29632;49.168;9.848;2023-03-21T06:09:09;96881.75;;;14.63;42.47
40838;BME280;29632;49.168;9.848;2023-03-21T06:11:36;96877.97;;;14.66;42.24
40838;BME280;29632;49.168;9.848;2023-03-21T06:14:02;96880.44;;;14.67;42.37
40838;BME280;29632;49.168;9.848;2023-03-21T06:16:28;96883.69;;;14.69;42.11
40838;BME280;29632;49.168;9.848;2023-03-21T06:18:54;96888.78;;;14.71;42.49
40838;BME280;29632;49.168;9.848;2023-03-21T06:21:20;96886.00;;;14.72;42.51
40838;BME280;29632;49.168;9.848;2023-03-21T06:23:46;96887.47;;;14.75;42.27
40838;BME280;29632;49.168;9.848;2023-03-21T06:26:12;96890.75;;;14.77;42.40
40838;BME280;29632;49.168;9.848;2023-03-21T06:28:38;96889.59;;;14.80;42.35
40838;BME280;29632;49.168;9.848;2023-03-21T06:31:04;96894.66;;;14.81;42.42
40838;BME280;29632;49.168;9.848;2023-03-21T06:33:30;96891.72;;;14.84;42.45
40838;BME280;29632;49.168;9.848;2023-03-21T06:35:56;96891.56;;;14.86;42.34
40838;BME280;29632;49.168;9.848;2023-03-21T06:38:23;96899.91;;;14.89;42.41
40838;BME280;29632;49.168;9.848;2023-03-21T06:40:50;96894.31;;;14.93;42.43
40838;BME280;29632;49.168;9.848;2023-03-21T06:43:16;96895.78;;;14.95;42.42
40838;BME280;29632;49.168;9.848;2023-03-21T06:45:42;96886.94;;;14.96;42.23
40838;BME280;29632;49.168;9.848;2023-03-21T06:48:07;96891.84;;;14.99;42.26
40838;BME280;29632;49.168;9.848;2023-03-21T06:50:33;96885.44;;;15.02;42.46
40838;BME280;29632;49.168;9.848;2023-03-21T06:52:59;96884.63;;;15.01;42.28
40838;BME280;29632;49.168;9.848;2023-03-21T06:55:25;96893.31;;;15.02;42.31
40838;BME280;29632;49.168;9.848;2023-03-21T06:57:54;96883.97;;;14.99;42.26
40838;BME280;29632;49.168;9.848;2023-03-21T07:00:20;96877.91;;;14.99;42.40
40838;BME280;29632;49.168;9.848;2023-03-21T07:02:46;96879.72;;;14.98;42.36
40838;BME280;29632;49.168;9.848;2023-03-21T07:05:12;96885.75;;;14.99;42.38
40838;BME280;29632;49.168;9.848;2023-03-21T07:07:38;96879.53;;;15.00;42.29
40838;BME280;29632;49.168;9.848;2023-03-21T07:10:05;96881.34;;;14.99;42.44
40838;BME280;29632;49.168;9.848;2023-03-21T07:12:31;96889.03;;;15.01;42.54
40838;BME280;29632;49.168;9.848;2023-03-21T07:14:59;96880.53;;;14.99;42.65
40838;BME280;29632;49.168;9.848;2023-03-21T07:17:25;96878.91;;;14.98;42.45
40838;BME280;29632;49.168;9.848;2023-03-21T07:19:51;96883.63;;;15.02;42.45
40838;BME280;29632;49.168;9.848;2023-03-21T07:22:17;96887.72;;;15.05;42.59
40838;BME280;29632;49.168;9.848;2023-03-21T07:24:42;96897.22;;;15.06;42.50
40838;BME280;29632;49.168;9.848;2023-03-21T07:27:08;96891.81;;;15.07;42.23
40838;BME280;29632;49.168;9.848;2023-03-21T07:29:37;96893.44;;;15.08;42.28
40838;BME280;29632;49.168;9.848;2023-03-21T07:32:02;96894.09;;;15.10;42.48
40838;BME280;29632;49.168;9.848;2023-03-21T07:34:28;96893.13;;;15.12;42.48
40838;BME280;29632;49.168;9.848;2023-03-21T07:36:57;96890.13;;;15.15;42.54
40838;BME280;29632;49.168;9.848;2023-03-21T07:39:23;96886.38;;;15.17;42.44
40838;BME280;29632;49.168;9.848;2023-03-21T07:41:48;96879.78;;;15.21;42.17
40838;BME280;29632;49.168;9.848;2023-03-21T07:44:14;96877.13;;;15.29;42.14
40838;BME280;29632;49.168;9.848;2023-03-21T07:46:40;96874.81;;;15.35;42.16
40838;BME280;29632;49.168;9.848;2023-03-21T07:49:06;96877.09;;;15.38;42.15
40838;BME280;29632;49.168;9.848;2023-03-21T07:51:34;96872.66;;;15.38;42.24
40838;BME280;29632;49.168;9.848;2023-03-21T07:54:00;96883.00;;;15.40;42.31
40838;BME280;29632;49.168;9.848;2023-03-21T07:56:27;96880.84;;;15.43;42.29
40838;BME280;29632;49.168;9.848;2023-03-21T07:58:52;96880.66;;;15.45;42.40
40838;BME280;29632;49.168;9.848;2023-03-21T08:01:18;96878.84;;;15.45;42.39
40838;BME280;29632;49.168;9.848;2023-03-21T08:03:44;96876.41;;;15.44;42.31
40838;BME280;29632;49.168;9.848;2023-03-21T08:06:10;96874.41;;;15.46;42.54
40838;BME280;29632;49.168;9.848;2023-03-21T08:08:35;96873.25;;;15.48;42.58
40838;BME280;29632;49.168;9.848;2023-03-21T08:11:02;96872.44;;;15.48;42.41
40838;BME280;29632;49.168;9.848;2023-03-21T08:13:28;96874.06;;;15.49;42.43
40838;BME280;29632;49.168;9.848;2023-03-21T08:15:54;96881.59;;;15.52;42.50
40838;BME280;29632;49.168;9.848;2023-03-21T08:18:20;96870.78;;;15.55;42.59
40838;BME280;29632;49.168;9.848;2023-03-21T08:20:51;96877.31;;;15.59;42.48
40838;BME280;29632;49.168;9.848;2023-03-21T08:23:16;96884.66;;;15.64;42.52
40838;BME280;29632;49.168;9.848;2023-03-21T08:25:42;96884.47;;;15.65;42.54
40838;BME280;29632;49.168;9.848;2023-03-21T08:28:08;96880.88;;;15.66;42.45
40838;BME280;29632;49.168;9.848;2023-03-21T08:30:34;96877.44;;;15.66;42.44
40838;BME280;29632;49.168;9.848;2023-03-21T08:33:00;96880.88;;;15.66;42.41
40838;BME280;29632;49.168;9.848;2023-03-21T08:35:26;96877.59;;;15.64;42.40
40838;BME280;29632;49.168;9.848;2023-03-21T08:37:51;96879.72;;;15.69;42.62
40838;BME280;29632;49.168;9.848;2023-03-21T08:40:18;96877.72;;;15.71;42.60
40838;BME280;29632;49.168;9.848;2023-03-21T08:42:45;96870.34;;;15.75;42.44
40838;BME280;29632;49.168;9.848;2023-03-21T08:45:12;96872.25;;;15.81;42.49
40838;BME280;29632;49.168;9.848;2023-03-21T08:47:38;96870.75;;;15.86;42.54
40838;BME280;29632;49.168;9.848;2023-03-21T08:50:05;96866.44;;;15.94;42.60
40838;BME280;29632;49.168;9.848;2023-03-21T08:52:31;96871.78;;;16.00;42.44
40838;BME280;29632;49.168;9.848;2023-03-21T08:54:57;96873.38;;;16.10;42.29
40838;BME280;29632;49.168;9.848;2023-03-21T08:57:23;96865.78;;;16.15;42.32
40838;BME280;29632;49.168;9.848;2023-03-21T08:59:49;96866.53;;;16.23;42.55
40838;BME280;29632;49.168;9.848;2023-03-21T09:02:16;96855.13;;;16.31;42.05
40838;BME280;29632;49.168;9.848;2023-03-21T09:04:42;96862.31;;;16.37;42.05
40838;BME280;29632;49.168;9.848;2023-03-21T09:07:09;96857.53;;;16.41;41.90
40838;BME280;29632;49.168;9.848;2023-03-21T09:09:37;96852.44;;;16.39;41.98
40838;BME280;29632;49.168;9.848;2023-03-21T09:12:03;96862.31;;;16.37;42.00
40838;BME280;29632;49.168;9.848;2023-03-21T09:14:28;96861.66;;;16.35;42.11
40838;BME280;29632;49.168;9.848;2023-03-21T09:16:54;96859.69;;;16.37;41.98
40838;BME280;29632;49.168;9.848;2023-03-21T09:19:20;96864.56;;;16.40;41.94
40838;BME280;29632;49.168;9.848;2023-03-21T09:21:46;96858.69;;;16.38;41.84
40838;BME280;29632;49.168;9.848;2023-03-21T09:24:12;96870.47;;;16.42;42.13
40838;BME280;29632;49.168;9.848;2023-03-21T09:26:38;96861.06;;;16.48;42.02
40838;BME280;29632;49.168;9.848;2023-03-21T09:29:03;96856.19;;;16.60;41.85
40838;BME280;29632;49.168;9.848;2023-03-21T09:31:30;96853.91;;;16.72;41.68
40838;BME280;29632;49.168;9.848;2023-03-21T09:33:56;96859.56;;;16.84;41.78
40838;BME280;29632;49.168;9.848;2023-03-21T09:36:25;96857.66;;;16.92;41.46
40838;BME280;29632;49.168;9.848;2023-03-21T09:38:52;96855.94;;;16.99;41.41
40838;BME280;29632;49.168;9.848;2023-03-21T09:47:26;96852.13;;;17.02;41.40
40838;BME280;29632;49.168;9.848;2023-03-21T09:50:00;96853.13;;;17.01;41.51
40838;BME280;29632;49.168;9.848;2023-03-21T09:55:24;96850.84;;;17.13;41.15
40838;BME280;29632;49.168;9.848;2023-03-21T10:00:37;96839.94;;;17.31;41.33
40838;BME280;29632;49.168;9.848;2023-03-21T10:03:10;96837.44;;;17.44;41.08
40838;BME280;29632;49.168;9.848;2023-03-21T10:05:41;96842.41;;;17.54;40.71
40838;BME280;29632;49.168;9.848;2023-03-21T10:08:20;96838.84;;;17.62;40.95
40838;BME280;29632;49.168;9.848;2023-03-21T10:10:49;96846.25;;;17.73;40.69
40838;BME280;29632;49.168;9.848;2023-03-21T10:13:19;96848.59;;;17.83;40.76
40838;BME280;29632;49.168;9.848;2023-03-21T10:15:45;96840.34;;;17.86;40.90
40838;BME280;29632;49.168;9.848;2023-03-21T10:18:15;96833.31;;;17.93;40.72
40838;BME280;29632;49.168;9.848;2023-03-21T10:20:43;96825.31;;;18.08;40.47
40838;BME280;29632;49.168;9.848;2023-03-21T10:23:14;96821.78;;;18.22;40.59
40838;BME280;29632;49.168;9.848;2023-03-21T10:25:49;96816.56;;;18.29;40.39
40838;BME280;29632;49.168;9.848;2023-03-21T10:28:18;96824.28;;;18.30;40.14
40838;BME280;29632;49.168;9.848;2023-03-21T10:30:52;96823.91;;;18.34;40.59
40838;BME280;29632;49.168;9.848;2023-03-21T10:33:31;96813.97;;;18.36;40.15
40838;BME280;29632;49.168;9.848;2023-03-21T10:36:00;96806.91;;;18.43;40.59
40838;BME280;29632;49.168;9.848;2023-03-21T10:38:27;96812.47;;;18.55;40.29
40838;BME280;29632;49.168;9.848;2023-03-21T10:40:53;96814.72;;;18.58;40.40
40838;BME280;29632;49.168;9.848;2023-03-21T10:46:17;96808.63;;;18.57;40.76
40838;BME280;29632;49.168;9.848;2023-03-21T10:48:43;96808.84;;;18.62;40.63
40838;BME280;29632;49.168;9.848;2023-03-21T10:51:19;96801.00;;;18.69;40.66
40838;BME280;29632;49.168;9.848;2023-03-21T10:53:50;96794.34;;;18.80;40.49
40838;BME280;29632;49.168;9.848;2023-03-21T10:56:16;96794.25;;;18.95;40.42
40838;BME280;29632;49.168;9.848;2023-03-21T10:58:44;96791.22;;;19.04;40.40
40838;BME280;29632;49.168;9.848;2023-03-21T11:01:22;96793.50;;;19.14;40.27
40838;BME280;29632;49.168;9.848;2023-03-21T11:03:54;96784.81;;;19.20;40.16
40838;BME280;29632;49.168;9.848;2023-03-21T11:06:26;96791.53;;;19.30;40.24
40838;BME280;29632;49.168;9.848;2023-03-21T11:09:00;96784.63;;;19.35;40.19
40838;BME280;29632;49.168;9.848;2023-03-21T11:11:32;96791.38;;;19.38;40.10
40838;BME280;29632;49.168;9.848;2023-03-21T11:14:04;96782.41;;;19.39;40.17
40838;BME280;29632;49.168;9.848;2023-03-21T11:16:42;96777.53;;;19.42;40.06
40838;BME280;29632;49.168;9.848;2023-03-21T11:19:13;96784.69;;;19.49;40.03
40838;BME280;29632;49.168;9.848;2023-03-21T11:21:40;96776.34;;;19.52;40.03
40838;BME280;29632;49.168;9.848;2023-03-21T11:24:10;96773.69;;;19.52;40.12
40838;BME280;29632;49.168;9.848;2023-03-21T11:26:37;96774.94;;;19.49;40.28
40838;BME280;29632;49.168;9.848;2023-03-21T11:29:26;96772.88;;;19.51;40.27
40838;BME280;29632;49.168;9.848;2023-03-21T11:31:57;96761.72;;;19.56;39.92
40838;BME280;29632;49.168;9.848;2023-03-21T11:34:32;96761.97;;;19.68;39.94
40838;BME280;29632;49.168;9.848;2023-03-21T11:37:02;96764.00;;;19.79;40.06
40838;BME280;29632;49.168;9.848;2023-03-21T11:39:36;96763.63;;;19.89;39.79
40838;BME280;29632;49.168;9.848;2023-03-21T11:42:26;96760.56;;;19.98;39.74
40838;BME280;29632;49.168;9.848;2023-03-21T11:45:00;96758.50;;;20.00;39.88
40838;BME280;29632;49.168;9.848;2023-03-21T11:47:26;96755.06;;;20.00;39.83
40838;BME280;29632;49.168;9.848;2023-03-21T11:49:52;96747.13;;;20.00;39.89
40838;BME280;29632;49.168;9.848;2023-03-21T11:52:37;96744.28;;;20.02;39.88
40838;BME280;29632;49.168;9.848;2023-03-21T11:55:35;96744.28;;;20.08;39.91
40838;BME280;29632;49.168;9.848;2023-03-21T12:00:58;96740.63;;;20.16;39.80
40838;BME280;29632;49.168;9.848;2023-03-21T12:11:23;96725.94;;;20.40;39.40
40838;BME280;29632;49.168;9.848;2023-03-21T12:16:46;96721.59;;;20.59;39.25
40838;BME280;29632;49.168;9.848;2023-03-21T12:24:50;96707.91;;;20.82;39.08
40838;BME280;29632;49.168;9.848;2023-03-21T12:27:39;96709.28;;;20.91;39.07
40838;BME280;29632;49.168;9.848;2023-03-21T12:33:17;96706.34;;;21.06;38.75
40838;BME280;29632;49.168;9.848;2023-03-21T12:41:36;96698.00;;;21.09;38.87
40838;BME280;29632;49.168;9.848;2023-03-21T12:44:09;96697.41;;;21.07;38.82
40838;BME280;29632;49.168;9.848;2023-03-21T12:46:43;96691.50;;;21.05;38.92
40838;BME280;29632;49.168;9.848;2023-03-21T12:52:23;96684.78;;;21.03;39.02
40838;BME280;29632;49.168;9.848;2023-03-21T12:54:58;96679.28;;;21.04;39.00
40838;BME280;29632;49.168;9.848;2023-03-21T12:58:04;96679.09;;;21.06;38.88
40838;BME280;29632;49.168;9.848;2023-03-21T13:03:36;96679.50;;;21.03;38.94
40838;BME280;29632;49.168;9.848;2023-03-21T13:06:08;96678.50;;;21.04;39.09
40838;BME280;29632;49.168;9.848;2023-03-21T13:11:13;96680.28;;;21.10;39.06
40838;BME280;29632;49.168;9.848;2023-03-21T13:13:45;96671.91;;;21.13;38.96
40838;BME280;29632;49.168;9.848;2023-03-21T13:24:49;96680.03;;;21.18;38.89
40838;BME280;29632;49.168;9.848;2023-03-21T13:27:35;96671.88;;;21.20;38.96
40838;BME280;29632;49.168;9.848;2023-03-21T13:30:25;96674.28;;;21.21;38.86
40838;BME280;29632;49.168;9.848;2023-03-21T13:33:04;96675.91;;;21.22;38.76
40838;BME280;29632;49.168;9.848;2023-03-21T13:35:36;96676.50;;;21.24;38.88
40838;BME280;29632;49.168;9.848;2023-03-21T13:38:13;96665.69;;;21.26;38.91
40838;BME280;29632;49.168;9.848;2023-03-21T13:46:12;96661.81;;;21.28;38.79
40838;BME280;29632;49.168;9.848;2023-03-21T13:56:28;96651.75;;;21.12;38.85
40838;BME280;29632;49.168;9.848;2023-03-21T13:59:00;96650.13;;;21.11;38.79
40838;BME280;29632;49.168;9.848;2023-03-21T14:07:01;96642.78;;;21.13;38.78
40838;BME280;29632;49.168;9.848;2023-03-21T14:09:35;96645.44;;;21.13;38.78
40838;BME280;29632;49.168;9.848;2023-03-21T14:12:02;96642.19;;;21.11;38.85
40838;BME280;29632;49.168;9.848;2023-03-21T14:14:31;96643.00;;;21.11;38.83
40838;BME280;29632;49.168;9.848;2023-03-21T14:16:58;96647.47;;;21.11;38.80
40838;BME280;29632;49.168;9.848;2023-03-21T14:19:31;96644.22;;;21.09;38.80
40838;BME280;29632;49.168;9.848;2023-03-21T14:21:57;96640.56;;;21.10;38.83
40838;BME280;29632;49.168;9.848;2023-03-21T14:24:22;96632.41;;;21.11;38.87
40838;BME280;29632;49.168;9.848;2023-03-21T14:26:50;96638.50;;;21.12;38.65
40838;BME280;29632;49.168;9.848;2023-03-21T14:29:25;96637.47;;;21.13;38.85
40838;BME280;29632;49.168;9.848;2023-03-21T14:31:54;96634.00;;;21.12;38.78
40838;BME280;29632;49.168;9.848;2023-03-21T14:34:21;96633.19;;;21.12;38.89
40838;BME280;29632;49.168;9.848;2023-03-21T14:36:47;96635.03;;;21.11;38.76
40838;BME280;29632;49.168;9.848;2023-03-21T14:39:16;96632.63;;;21.10;38.81
40838;BME280;29632;49.168;9.848;2023-03-21T14:41:54;96633.03;;;21.07;38.82
40838;BME280;29632;49.168;9.848;2023-03-21T14:44:24;96625.28;;;21.05;38.75
40838;BME280;29632;49.168;9.848;2023-03-21T14:47:18;96626.13;;;21.06;38.77